createdAt,value
2023-05-25T00:00:15.961Z,7.882328
2023-05-25T00:05:17.392Z,7.538544
2023-05-25T00:10:19.708Z,7.782716
2023-05-25T00:15:21.261Z,8.678614
2023-05-25T00:20:22.713Z,8.404712
2023-05-25T00:25:24.054Z,8.54429
2023-05-25T00:30:25.756Z,8.073848
2023-05-25T00:35:27.241Z,6.81141
2023-05-25T00:40:28.732Z,7.017652
2023-05-25T00:45:30.260Z,6.648128
2023-05-25T00:50:31.671Z,7.300522
2023-05-25T00:55:33.130Z,6.79788
2023-05-25T01:00:34.744Z,7.00129
2023-05-25T01:05:36.021Z,6.81213
2023-05-25T01:10:37.442Z,7.020136
2023-05-25T01:15:39.103Z,7.4279
2023-05-25T01:20:40.432Z,7.579592
2023-05-25T01:25:41.929Z,7.302572
2023-05-25T01:30:43.670Z,7.26519
2023-05-25T01:35:45.240Z,7.409812
2023-05-25T01:40:46.869Z,7.22346
2023-05-25T01:45:48.343Z,7.343768
2023-05-25T01:50:49.797Z,7.706522
2023-05-25T01:55:51.229Z,7.61224
2023-05-25T02:00:52.873Z,8.076346
2023-05-25T02:05:54.318Z,7.957788
2023-05-25T02:10:55.773Z,8.233006
2023-05-25T02:15:57.374Z,7.748166
2023-05-25T02:20:58.838Z,8.148154
2023-05-25T02:26:00.260Z,7.89059
2023-05-25T02:31:01.927Z,7.617098
2023-05-25T02:36:03.322Z,7.566796
2023-05-25T02:41:04.752Z,7.92309
2023-05-25T02:46:06.422Z,7.965578
2023-05-25T02:51:07.877Z,7.658432
2023-05-25T02:56:09.348Z,7.131352
2023-05-25T03:01:11.058Z,7.098404
2023-05-25T03:06:12.603Z,7.697106
2023-05-25T03:11:14.081Z,7.671662
2023-05-25T03:16:15.729Z,7.643424
2023-05-25T03:21:17.107Z,7.388344
2023-05-25T03:26:18.717Z,7.407166
2023-05-25T03:31:20.225Z,7.291106
2023-05-25T03:36:21.822Z,7.435566
2023-05-25T03:41:23.764Z,7.302138
2023-05-25T03:46:25.543Z,7.386008
2023-05-25T03:51:27.052Z,7.966622
2023-05-25T03:56:28.999Z,7.45558
2023-05-25T04:01:30.374Z,6.869216
2023-05-25T04:06:31.864Z,6.974244
2023-05-25T04:11:33.512Z,7.300808
2023-05-25T04:16:35.178Z,7.557814
2023-05-25T04:21:36.475Z,7.567802
2023-05-25T04:26:37.993Z,7.761248
2023-05-25T04:31:39.679Z,7.445716
2023-05-25T04:36:41.201Z,7.814644
2023-05-25T04:41:42.608Z,7.394804
2023-05-25T04:46:44.065Z,6.717848
2023-05-25T04:51:45.561Z,7.211222
2023-05-25T04:56:46.888Z,7.1721
2023-05-25T05:01:49.138Z,7.203284
2023-05-25T05:06:50.611Z,7.02456
2023-05-25T05:11:52.430Z,8.231838
2023-05-25T05:16:53.929Z,8.097962
2023-05-25T05:21:55.585Z,7.67006
2023-05-25T05:26:58.870Z,7.14298
2023-05-25T05:32:00.971Z,8.407768
2023-05-25T05:37:02.707Z,8.29259
2023-05-25T05:42:04.027Z,7.64166
2023-05-25T05:47:05.854Z,8.432316
2023-05-25T05:52:07.744Z,8.408364
2023-05-25T05:57:09.210Z,8.373056
2023-05-25T06:02:10.977Z,9.357634
2023-05-25T06:07:12.354Z,9.342068
2023-05-25T06:12:14.097Z,9.76689
2023-05-25T06:17:15.559Z,9.64376
2023-05-25T06:22:17.237Z,10.326808
2023-05-25T06:27:18.738Z,10.475802
2023-05-25T06:32:20.497Z,10.757694
2023-05-25T06:37:22.268Z,11.373182
2023-05-25T06:42:23.749Z,11.97708
2023-05-25T06:47:25.258Z,12.150078
2023-05-25T06:52:27.133Z,12.024192
2023-05-25T06:57:28.902Z,12.515396
2023-05-25T07:02:30.813Z,13.599914
2023-05-25T07:07:32.426Z,13.45913
2023-05-25T07:12:34.043Z,14.679506
2023-05-25T07:17:36.195Z,15.353872
2023-05-25T07:22:37.953Z,15.321562
2023-05-25T07:27:39.821Z,16.026568
2023-05-25T07:32:41.877Z,16.220152
2023-05-25T07:37:43.298Z,17.957218
2023-05-25T07:42:45.094Z,17.821644
2023-05-25T07:47:47.204Z,18.940414
2023-05-25T07:57:59.028Z,20.149762
2023-05-25T08:03:00.773Z,19.403042
2023-05-25T08:08:02.343Z,20.256636
2023-05-25T08:13:04.398Z,19.993956
2023-05-25T08:18:06.270Z,20.735018
2023-05-25T08:23:07.657Z,21.099578
2023-05-25T08:28:09.169Z,20.670128
2023-05-25T08:33:10.862Z,21.88409
2023-05-25T08:38:12.358Z,21.394798
2023-05-25T08:43:13.822Z,21.798846
2023-05-25T08:48:23.955Z,22.48985
2023-05-25T08:53:37.894Z,22.43222
2023-05-25T08:58:39.791Z,22.662998
2023-05-25T09:03:41.729Z,22.704494
2023-05-25T09:08:43.612Z,23.447782
2023-05-25T09:13:45.202Z,21.90055
2023-05-25T09:18:46.832Z,22.482482
2023-05-25T09:23:48.348Z,22.807582
2023-05-25T09:28:49.632Z,22.639916
2023-05-25T09:33:51.343Z,23.05828
2023-05-25T09:38:53.169Z,22.86874
2023-05-25T09:44:06.701Z,22.783754
2023-05-25T09:49:11.907Z,23.043082
2023-05-25T09:54:13.623Z,23.042404
2023-05-25T09:59:15.520Z,22.976442
2023-05-25T10:04:17.419Z,24.117604
2023-05-25T10:09:19.082Z,23.07109
2023-05-25T10:14:20.623Z,23.802016
2023-05-25T10:19:22.212Z,24.674582
2023-05-25T10:24:23.730Z,23.95827
2023-05-25T10:29:25.317Z,24.349088
2023-05-25T10:34:26.607Z,24.813426
2023-05-25T10:39:28.172Z,24.2257
2023-05-25T10:44:29.845Z,24.451484
2023-05-25T10:49:31.632Z,24.460956
2023-05-25T10:54:33.261Z,24.035698
2023-05-25T10:59:35.619Z,23.949884
2023-05-25T11:04:37.433Z,23.947428
2023-05-25T11:09:39.448Z,24.119762
2023-05-25T11:14:41.352Z,24.247316
2023-05-25T11:19:43.132Z,24.70107
2023-05-25T11:24:44.911Z,23.688534
2023-05-25T11:29:46.858Z,24.070816
2023-05-25T11:34:48.171Z,24.249134
2023-05-25T11:39:49.631Z,23.732906
2023-05-25T11:44:51.466Z,24.583856
2023-05-25T11:49:53.160Z,23.935514
2023-05-25T11:54:54.823Z,23.910342
2023-05-25T11:59:56.833Z,23.68107
2023-05-25T12:04:58.720Z,23.860664
2023-05-25T12:10:00.537Z,24.464728
2023-05-25T12:15:02.205Z,24.648542
2023-05-25T12:20:03.972Z,24.055116
2023-05-25T12:25:05.697Z,23.292654
2023-05-25T12:30:07.475Z,23.37589
2023-05-25T12:35:09.015Z,23.067996
2023-05-25T12:40:10.769Z,23.568714
2023-05-25T12:45:12.484Z,23.179918
2023-05-25T12:50:14.095Z,23.534098
2023-05-25T12:55:16.007Z,23.562784
2023-05-25T13:00:17.516Z,23.05387
2023-05-25T13:05:19.227Z,23.032742
2023-05-25T13:10:20.976Z,23.759204
2023-05-25T13:15:22.516Z,23.305206
2023-05-25T13:20:24.112Z,22.612994
2023-05-25T13:25:25.575Z,22.939804
2023-05-25T13:30:27.449Z,22.985072
2023-05-25T13:35:28.768Z,22.639468
2023-05-25T13:40:30.601Z,22.474394
2023-05-25T13:45:32.366Z,22.462928
2023-05-25T13:50:34.114Z,22.649632
2023-05-25T13:55:37.312Z,22.111842
2023-05-25T14:00:40.257Z,22.219286
2023-05-25T14:05:42.094Z,21.96795
2023-05-25T14:10:43.925Z,21.678606
2023-05-25T14:15:45.763Z,22.028606
2023-05-25T14:20:47.713Z,21.452238
2023-05-25T14:25:49.343Z,21.283568
2023-05-25T14:30:50.964Z,21.411122
2023-05-25T14:35:52.647Z,21.21055
2023-05-25T14:40:54.446Z,20.787532
2023-05-25T14:45:56.091Z,20.54655
2023-05-25T14:50:57.893Z,20.49755
2023-05-25T14:55:59.783Z,20.295404
2023-05-25T15:01:01.532Z,20.234504
2023-05-25T15:06:03.270Z,19.912932
2023-05-25T15:11:05.199Z,20.191244
2023-05-25T15:16:06.907Z,20.04913
2023-05-25T15:21:08.802Z,19.186078
2023-05-25T15:26:10.789Z,19.563882
2023-05-25T15:31:12.552Z,19.302342
2023-05-25T15:36:14.408Z,18.988084
2023-05-25T15:41:16.052Z,18.71691
2023-05-25T15:46:17.785Z,18.50266
2023-05-25T15:51:19.607Z,18.350572
2023-05-25T15:56:20.949Z,18.840746
2023-05-25T16:01:22.387Z,18.600388
2023-05-25T16:06:24.097Z,18.18463
2023-05-25T16:11:25.557Z,17.885204
2023-05-25T16:16:27.058Z,17.626826
2023-05-25T16:21:28.753Z,18.16661
2023-05-25T16:26:30.309Z,17.442972
2023-05-25T16:31:31.808Z,17.731176
2023-05-25T16:36:33.430Z,17.374554
2023-05-25T16:41:34.934Z,17.429538
2023-05-25T16:46:36.329Z,17.377282
2023-05-25T16:51:38.061Z,17.318404
2023-05-25T16:56:39.403Z,16.857636
2023-05-25T17:01:40.913Z,17.372506
2023-05-25T17:06:42.403Z,17.183536
2023-05-25T17:11:43.880Z,17.252116
2023-05-25T17:16:45.544Z,17.166764
2023-05-25T17:21:47.240Z,16.791172
2023-05-25T17:26:48.712Z,17.119176
2023-05-25T17:31:50.586Z,16.614008
2023-05-25T17:36:52.351Z,16.564316
2023-05-25T17:41:53.722Z,16.648868
2023-05-25T17:46:55.686Z,16.910326
2023-05-25T17:51:57.273Z,16.560788
2023-05-25T17:56:58.660Z,16.589026
2023-05-25T18:02:00.249Z,16.725224
2023-05-25T18:07:01.986Z,16.162332
2023-05-25T18:12:03.309Z,16.139644
2023-05-25T18:17:04.841Z,16.375062
2023-05-25T18:22:06.395Z,16.067888
2023-05-25T18:27:07.908Z,16.687352
2023-05-25T18:32:09.746Z,16.656196
2023-05-25T18:37:11.332Z,16.593532
2023-05-25T18:42:13.008Z,16.411686
2023-05-25T18:47:15.169Z,16.867244
2023-05-25T18:52:16.996Z,16.67385
2023-05-25T18:57:18.630Z,16.469954
2023-05-25T19:02:20.600Z,16.703866
2023-05-25T19:07:21.987Z,16.4282
2023-05-25T19:12:23.484Z,16.627958
2023-05-25T19:17:25.007Z,16.037166
2023-05-25T19:22:26.328Z,16.711628
2023-05-25T19:27:27.825Z,16.375414
2023-05-25T19:32:29.447Z,16.329332
2023-05-25T19:37:30.793Z,16.187924
2023-05-25T19:42:32.276Z,15.96408
2023-05-25T19:47:33.912Z,16.234712
2023-05-25T19:52:35.468Z,16.329862
2023-05-25T19:57:36.880Z,16.28131
2023-05-25T20:02:38.279Z,16.18802
2023-05-25T20:07:39.848Z,16.004152
2023-05-25T20:12:41.277Z,15.762912
2023-05-25T20:17:42.954Z,15.524318
2023-05-25T20:22:44.511Z,15.859216
2023-05-25T20:27:45.988Z,15.673842
2023-05-25T20:32:47.545Z,16.132398
2023-05-25T20:37:48.942Z,15.93336
2023-05-25T20:42:50.450Z,16.088012
2023-05-25T20:47:52.376Z,15.917646
2023-05-25T20:52:53.836Z,15.875106
2023-05-25T20:57:55.111Z,15.841114
2023-05-25T21:02:56.803Z,15.651344
2023-05-25T21:07:58.400Z,15.815522
2023-05-25T21:12:59.823Z,16.1987
2023-05-25T21:18:01.248Z,15.741378
2023-05-25T21:23:02.674Z,15.63236
2023-05-25T21:28:04.132Z,15.78727
2023-05-25T21:33:05.930Z,15.784624
2023-05-25T21:38:07.559Z,15.82038
2023-05-25T21:43:09.007Z,15.69653
2023-05-25T21:48:10.539Z,15.972548
2023-05-25T21:53:12.028Z,16.140784
2023-05-25T21:58:13.686Z,15.806254
2023-05-25T22:03:15.375Z,15.630596
2023-05-25T22:08:17.212Z,15.595112
2023-05-25T22:13:18.528Z,15.866272
2023-05-25T22:18:20.147Z,15.335784
2023-05-25T22:23:21.650Z,14.844566
2023-05-25T22:28:23.078Z,15.217674
2023-05-25T22:33:24.585Z,14.866454
2023-05-25T22:38:26.072Z,15.163478
2023-05-25T22:43:27.379Z,13.835414
2023-05-25T22:48:28.873Z,14.585688
2023-05-25T22:53:30.573Z,15.250786
2023-05-25T22:58:31.848Z,14.845096
2023-05-25T23:03:33.260Z,15.133204
2023-05-25T23:08:34.910Z,15.08183
2023-05-25T23:13:36.179Z,15.237446
2023-05-25T23:18:37.498Z,14.91616
2023-05-25T23:23:38.989Z,15.30604
2023-05-25T23:28:40.352Z,14.995066
2023-05-25T23:33:42.198Z,14.960898
2023-05-25T23:38:44.022Z,14.324148
2023-05-25T23:43:45.696Z,14.278514
2023-05-25T23:48:47.565Z,13.362312
2023-05-25T23:53:49.381Z,12.873306
2023-05-25T23:58:51.166Z,12.787358
